createdAt,value
2023-04-10T00:00:58.454Z,24.90
2023-04-10T00:01:58.647Z,22.50
2023-04-10T00:02:58.519Z,25.50
2023-04-10T00:03:58.702Z,23.70
2023-04-10T00:04:58.537Z,25.60
2023-04-10T00:05:58.578Z,22.90
2023-04-10T00:06:58.417Z,26.10
2023-04-10T00:07:58.413Z,23.30
2023-04-10T00:08:58.393Z,24.50
2023-04-10T00:09:58.434Z,26.20
2023-04-10T00:10:58.416Z,25.90
2023-04-10T00:11:58.411Z,23.30
2023-04-10T00:12:58.352Z,24.70
2023-04-10T00:13:58.393Z,25.20
2023-04-10T00:14:58.360Z,24.00
2023-04-10T00:15:58.374Z,23.60
2023-04-10T00:16:58.382Z,24.30
2023-04-10T00:17:58.387Z,25.10
2023-04-10T00:18:58.356Z,25.80
2023-04-10T00:19:58.349Z,26.60
2023-04-10T00:20:58.310Z,25.40
2023-04-10T00:21:58.340Z,24.50
2023-04-10T00:22:58.357Z,26.80
2023-04-10T00:23:58.339Z,30.00
2023-04-10T00:24:58.343Z,28.30
2023-04-10T00:25:58.309Z,23.90
2023-04-10T00:26:58.272Z,29.10
2023-04-10T00:27:58.297Z,27.00
2023-04-10T00:28:58.284Z,27.60
2023-04-10T00:29:58.279Z,26.20
2023-04-10T00:30:58.269Z,25.80
2023-04-10T00:31:58.344Z,26.10
2023-04-10T00:32:58.279Z,33.70
2023-04-10T00:33:58.258Z,27.90
2023-04-10T00:34:58.220Z,27.60
2023-04-10T00:35:58.253Z,25.10
2023-04-10T00:36:58.216Z,27.70
2023-04-10T00:37:58.238Z,33.10
2023-04-10T00:38:58.233Z,28.60
2023-04-10T00:39:58.209Z,31.40
2023-04-10T00:40:58.213Z,31.20
2023-04-10T00:41:58.193Z,26.90
2023-04-10T00:42:58.179Z,25.10
2023-04-10T00:43:58.185Z,24.40
2023-04-10T00:44:58.166Z,23.90
2023-04-10T00:45:58.263Z,24.20
2023-04-10T00:46:58.155Z,26.50
2023-04-10T00:47:58.221Z,25.10
2023-04-10T00:48:58.136Z,25.80
2023-04-10T00:49:58.140Z,28.10
2023-04-10T00:50:58.122Z,25.50
2023-04-10T00:51:58.755Z,24.70
2023-04-10T00:52:58.125Z,27.00
2023-04-10T00:53:58.133Z,26.00
2023-04-10T00:54:58.110Z,23.70
2023-04-10T00:55:58.107Z,23.40
2023-04-10T00:56:58.143Z,26.10
2023-04-10T00:57:58.109Z,26.70
2023-04-10T00:58:58.080Z,23.20
2023-04-10T00:59:58.084Z,23.60
2023-04-10T01:00:58.150Z,23.40
2023-04-10T01:01:58.182Z,23.70
2023-04-10T01:02:58.186Z,29.20
2023-04-10T01:03:58.668Z,28.80
2023-04-10T01:04:58.067Z,25.00
2023-04-10T01:05:58.065Z,24.10
2023-04-10T01:06:58.040Z,25.40
2023-04-10T01:07:58.070Z,26.60
2023-04-10T01:08:58.014Z,26.60
2023-04-10T01:09:58.057Z,32.70
2023-04-10T01:10:58.020Z,35.60
2023-04-10T01:11:58.036Z,36.90
2023-04-10T01:12:58.008Z,35.90
2023-04-10T01:13:58.001Z,35.40
2023-04-10T01:14:57.992Z,34.60
2023-04-10T01:15:57.990Z,31.60
2023-04-10T01:16:58.000Z,31.90
2023-04-10T01:17:58.008Z,33.50
2023-04-10T01:18:57.943Z,31.30
2023-04-10T01:19:57.950Z,30.10
2023-04-10T01:20:57.932Z,30.20
2023-04-10T01:21:57.949Z,29.90
2023-04-10T01:22:57.952Z,29.00
2023-04-10T01:23:57.949Z,29.10
2023-04-10T01:24:57.916Z,28.00
2023-04-10T01:25:57.914Z,29.30
2023-04-10T01:26:57.891Z,28.20
2023-04-10T01:27:57.943Z,29.20
2023-04-10T01:28:57.886Z,28.90
2023-04-10T01:29:57.888Z,30.90
2023-04-10T01:30:57.941Z,31.00
2023-04-10T01:31:57.884Z,29.60
2023-04-10T01:32:57.914Z,33.90
2023-04-10T01:33:57.912Z,29.40
2023-04-10T01:34:57.854Z,30.70
2023-04-10T01:35:57.883Z,30.70
2023-04-10T01:36:57.853Z,28.50
2023-04-10T01:37:57.840Z,30.00
2023-04-10T01:38:57.813Z,32.00
2023-04-10T01:39:57.849Z,30.10
2023-04-10T01:40:57.819Z,32.60
2023-04-10T01:41:57.814Z,30.90
2023-04-10T01:42:57.812Z,31.50
2023-04-10T01:43:57.800Z,33.10
2023-04-10T01:44:57.769Z,33.00
2023-04-10T01:45:57.922Z,31.90
2023-04-10T01:46:57.775Z,32.40
2023-04-10T01:47:57.875Z,33.10
2023-04-10T01:48:57.798Z,33.10
2023-04-10T01:49:57.770Z,33.60
2023-04-10T01:50:57.720Z,31.10
2023-04-10T01:51:57.741Z,31.10
2023-04-10T01:52:57.738Z,31.80
2023-04-10T01:53:57.750Z,33.40
2023-04-10T01:54:57.742Z,30.20
2023-04-10T01:55:57.737Z,29.20
2023-04-10T01:56:57.735Z,33.40
2023-04-10T01:57:57.703Z,31.90
2023-04-10T01:58:57.677Z,36.20
2023-04-10T01:59:57.687Z,32.90
2023-04-10T02:00:57.681Z,34.80
2023-04-10T02:01:57.764Z,38.10
2023-04-10T02:02:57.798Z,34.90
2023-04-10T02:03:58.129Z,31.00
2023-04-10T02:04:57.659Z,30.80
2023-04-10T02:05:57.665Z,31.00
2023-04-10T02:06:57.638Z,30.50
2023-04-10T02:07:57.668Z,38.10
2023-04-10T02:08:57.608Z,34.20
2023-04-10T02:09:57.624Z,34.40
2023-04-10T02:10:57.629Z,33.70
2023-04-10T02:11:57.648Z,34.90
2023-04-10T02:12:57.597Z,33.00
2023-04-10T02:13:57.638Z,34.70
2023-04-10T02:14:57.639Z,37.80
2023-04-10T02:15:57.702Z,36.60
2023-04-10T02:16:57.579Z,36.10
2023-04-10T02:17:57.633Z,39.40
2023-04-10T02:18:57.587Z,37.90
2023-04-10T02:19:57.581Z,35.10
2023-04-10T02:20:57.606Z,37.00
2023-04-10T02:21:57.608Z,41.00
2023-04-10T02:22:57.606Z,42.90
2023-04-10T02:23:57.584Z,38.50
2023-04-10T02:24:57.503Z,41.40
2023-04-10T02:25:57.592Z,42.20
2023-04-10T02:26:57.509Z,42.60
2023-04-10T02:27:57.539Z,45.10
2023-04-10T02:28:57.480Z,40.40
2023-04-10T02:29:57.512Z,37.20
2023-04-10T02:30:57.496Z,40.90
2023-04-10T02:31:57.520Z,40.20
2023-04-10T02:32:57.492Z,41.10
2023-04-10T02:33:57.472Z,41.10
2023-04-10T02:34:57.440Z,41.20
2023-04-10T02:35:57.472Z,41.00
2023-04-10T02:36:57.419Z,38.00
2023-04-10T02:37:57.445Z,39.50
2023-04-10T02:38:57.430Z,35.50
2023-04-10T02:39:57.416Z,35.20
2023-04-10T02:40:57.425Z,34.70
2023-04-10T02:41:57.397Z,36.10
2023-04-10T02:42:57.385Z,36.30
2023-04-10T02:43:57.405Z,34.20
2023-04-10T02:44:57.371Z,38.70
2023-04-10T02:45:57.405Z,37.50
2023-04-10T02:46:57.387Z,38.00
2023-04-10T02:47:57.414Z,37.60
2023-04-10T02:48:57.346Z,35.90
2023-04-10T02:49:57.353Z,35.00
2023-04-10T02:50:57.348Z,36.40
2023-04-10T02:51:57.329Z,39.30
2023-04-10T02:52:57.333Z,37.90
2023-04-10T02:53:57.353Z,39.90
2023-04-10T02:54:57.323Z,38.70
2023-04-10T02:55:57.345Z,38.40
2023-04-10T02:56:57.302Z,37.60
2023-04-10T02:57:57.302Z,35.40
2023-04-10T02:58:57.276Z,35.90
2023-04-10T02:59:57.277Z,37.70
2023-04-10T03:00:57.257Z,37.40
2023-04-10T03:01:57.387Z,35.90
2023-04-10T03:02:57.326Z,39.70
2023-04-10T03:03:57.722Z,38.50
2023-04-10T03:04:57.311Z,37.60
2023-04-10T03:05:57.251Z,39.90
2023-04-10T03:06:57.269Z,39.90
2023-04-10T03:07:57.255Z,41.40
2023-04-10T03:08:57.207Z,39.60
2023-04-10T03:09:57.234Z,40.00
2023-04-10T03:10:57.204Z,40.00
2023-04-10T03:11:57.228Z,41.90
2023-04-10T03:12:57.216Z,40.40
2023-04-10T03:13:57.205Z,42.00
2023-04-10T03:14:57.176Z,43.20
2023-04-10T03:15:57.254Z,42.70
2023-04-10T03:16:57.164Z,44.80
2023-04-10T03:17:57.226Z,43.30
2023-04-10T03:18:57.177Z,44.20
2023-04-10T03:19:57.156Z,42.70
2023-04-10T03:20:57.153Z,45.80
2023-04-10T03:21:57.162Z,42.90
2023-04-10T03:22:57.117Z,50.10
2023-04-10T03:23:57.149Z,40.30
2023-04-10T03:24:57.122Z,43.30
2023-04-10T03:25:57.135Z,44.70
2023-04-10T03:26:57.096Z,42.50
2023-04-10T03:27:57.119Z,51.50
2023-04-10T03:28:57.088Z,47.40
2023-04-10T03:29:57.093Z,42.90
2023-04-10T03:30:57.081Z,43.30
2023-04-10T03:31:57.190Z,45.50
2023-04-10T03:32:57.057Z,45.70
2023-04-10T03:33:57.287Z,50.10
2023-04-10T03:34:57.042Z,47.70
2023-04-10T03:35:57.109Z,47.10
2023-04-10T03:36:57.043Z,45.30
2023-04-10T03:37:57.036Z,45.80
2023-04-10T03:38:57.017Z,47.50
2023-04-10T03:39:57.017Z,43.00
2023-04-10T03:40:57.021Z,46.80
2023-04-10T03:41:57.028Z,43.00
2023-04-10T03:42:56.983Z,40.00
2023-04-10T03:43:57.135Z,45.00
2023-04-10T03:44:56.969Z,52.40
2023-04-10T03:45:56.976Z,50.10
2023-04-10T03:46:57.008Z,53.40
2023-04-10T03:47:57.048Z,50.20
2023-04-10T03:48:56.961Z,50.10
2023-04-10T03:49:56.947Z,44.70
2023-04-10T03:50:56.936Z,45.80
2023-04-10T03:51:56.935Z,44.80
2023-04-10T03:52:56.919Z,47.50
2023-04-10T03:53:57.073Z,45.80
2023-04-10T03:54:56.913Z,44.50
2023-04-10T03:55:56.917Z,48.10
2023-04-10T03:56:56.888Z,43.40
2023-04-10T03:57:56.902Z,40.50
2023-04-10T03:58:56.887Z,42.30
2023-04-10T03:59:56.877Z,43.90
2023-04-10T04:00:56.863Z,45.50
2023-04-10T04:01:56.939Z,40.80
2023-04-10T04:02:56.942Z,42.00
2023-04-10T04:03:57.083Z,43.10
2023-04-10T04:04:56.902Z,49.10
2023-04-10T04:05:56.850Z,46.30
2023-04-10T04:06:56.834Z,46.00
2023-04-10T04:07:56.831Z,50.30
2023-04-10T04:08:56.823Z,55.00
2023-04-10T04:09:56.819Z,57.70
2023-04-10T04:10:56.831Z,59.90
2023-04-10T04:11:56.830Z,59.70
2023-04-10T04:12:56.783Z,61.50
2023-04-10T04:13:56.820Z,69.10
2023-04-10T04:14:56.777Z,67.50
2023-04-10T04:15:56.772Z,65.60
2023-04-10T04:16:56.869Z,62.70
2023-04-10T04:17:56.818Z,62.80
2023-04-10T04:18:56.800Z,64.20
2023-04-10T04:19:56.761Z,57.90
2023-04-10T04:20:56.746Z,59.60
2023-04-10T04:21:56.746Z,59.40
2023-04-10T04:22:56.720Z,59.70
2023-04-10T04:23:56.737Z,49.60
2023-04-10T04:24:56.719Z,55.20
2023-04-10T04:25:56.717Z,50.90
2023-04-10T04:26:56.747Z,52.30
2023-04-10T04:27:56.697Z,65.80
2023-04-10T04:28:56.677Z,50.40
2023-04-10T04:29:56.681Z,70.40
2023-04-10T04:30:56.662Z,54.90
2023-04-10T04:31:56.711Z,49.50
2023-04-10T04:32:56.751Z,54.10
2023-04-10T04:33:56.696Z,45.20
2023-04-10T04:34:56.649Z,53.70
2023-04-10T04:35:56.671Z,53.60
2023-04-10T04:36:56.625Z,47.00
2023-04-10T04:37:56.652Z,46.60
2023-04-10T04:38:56.628Z,48.60
2023-04-10T04:39:56.631Z,44.20
2023-04-10T04:40:56.648Z,44.10
2023-04-10T04:41:56.597Z,54.70
2023-04-10T04:42:56.590Z,48.60
2023-04-10T04:43:56.670Z,47.80
2023-04-10T04:44:56.567Z,49.50
2023-04-10T04:45:56.620Z,54.50
2023-04-10T04:46:56.578Z,53.40
2023-04-10T04:47:56.588Z,48.20
2023-04-10T04:48:56.573Z,49.60
2023-04-10T04:49:56.569Z,46.60
2023-04-10T04:50:56.536Z,48.30
2023-04-10T04:51:56.560Z,48.50
2023-04-10T04:52:56.536Z,48.80
2023-04-10T04:53:56.688Z,45.60
2023-04-10T04:54:56.526Z,42.90
2023-04-10T04:55:56.538Z,44.30
2023-04-10T04:56:56.512Z,48.10
2023-04-10T04:57:56.489Z,42.70
2023-04-10T04:58:56.571Z,45.40
2023-04-10T04:59:56.524Z,46.40
2023-04-10T05:00:56.506Z,41.70
2023-04-10T05:01:56.663Z,39.40
2023-04-10T05:02:56.524Z,44.70
2023-04-10T05:03:56.517Z,43.60
2023-04-10T05:04:56.445Z,42.40
2023-04-10T05:05:56.509Z,44.00
2023-04-10T05:06:56.428Z,42.90
2023-04-10T05:07:56.450Z,40.70
2023-04-10T05:08:56.593Z,41.70
2023-04-10T05:09:56.414Z,41.50
2023-04-10T05:10:56.401Z,41.40
2023-04-10T05:11:56.431Z,38.50
2023-04-10T05:12:56.416Z,37.10
2023-04-10T05:13:56.399Z,37.60
2023-04-10T05:14:56.392Z,40.50
2023-04-10T05:15:56.397Z,36.10
2023-04-10T05:16:56.379Z,41.80
2023-04-10T05:17:56.518Z,38.10
2023-04-10T05:18:56.679Z,41.80
2023-04-10T05:19:56.383Z,38.80
2023-04-10T05:20:56.346Z,38.90
2023-04-10T05:21:56.374Z,36.60
2023-04-10T05:22:56.340Z,36.30
2023-04-10T05:23:56.384Z,35.50
2023-04-10T05:24:56.309Z,35.90
2023-04-10T05:25:56.339Z,37.20
2023-04-10T05:26:56.314Z,36.30
2023-04-10T05:27:56.308Z,38.10
2023-04-10T05:28:56.532Z,32.30
2023-04-10T05:29:56.293Z,34.30
2023-04-10T05:30:56.353Z,33.10
2023-04-10T05:31:56.290Z,33.00
2023-04-10T05:32:56.326Z,31.80
2023-04-10T05:33:56.276Z,35.10
2023-04-10T05:34:56.259Z,31.00
2023-04-10T05:35:56.293Z,30.80
2023-04-10T05:36:58.772Z,33.70
2023-04-10T05:37:56.247Z,29.00
2023-04-10T05:38:56.536Z,29.70
2023-04-10T05:39:56.230Z,29.70
2023-04-10T05:40:56.239Z,29.90
2023-04-10T05:41:56.226Z,31.30
2023-04-10T05:42:56.220Z,27.30
2023-04-10T05:43:56.219Z,30.10
2023-04-10T05:44:56.202Z,28.40
2023-04-10T05:45:56.246Z,28.30
2023-04-10T05:46:56.196Z,28.40
2023-04-10T05:47:56.226Z,27.10
2023-04-10T05:48:56.486Z,25.60
2023-04-10T05:49:56.173Z,25.50
2023-04-10T05:50:56.158Z,25.20
2023-04-10T05:51:56.174Z,26.10
2023-04-10T05:52:56.151Z,24.30
2023-04-10T05:53:56.161Z,25.00
2023-04-10T05:54:56.126Z,22.10
2023-04-10T05:55:56.138Z,26.40
2023-04-10T05:56:56.115Z,26.00
2023-04-10T05:57:56.134Z,26.50
2023-04-10T05:58:56.213Z,22.80
2023-04-10T05:59:56.160Z,21.90
2023-04-10T06:00:56.117Z,24.40
2023-04-10T06:01:56.155Z,22.20
2023-04-10T06:02:56.145Z,21.30
2023-04-10T06:03:56.240Z,21.20
2023-04-10T06:04:56.159Z,23.40
2023-04-10T06:05:56.086Z,21.40
2023-04-10T06:06:56.061Z,23.10
2023-04-10T06:07:58.192Z,19.90
2023-04-10T06:08:56.180Z,20.40
2023-04-10T06:09:56.080Z,19.40
2023-04-10T06:10:56.054Z,20.70
2023-04-10T06:11:56.060Z,21.40
2023-04-10T06:12:56.043Z,21.00
2023-04-10T06:13:56.039Z,19.50
2023-04-10T06:14:56.035Z,17.60
2023-04-10T06:15:56.071Z,18.10
2023-04-10T06:16:56.004Z,18.30
2023-04-10T06:17:56.025Z,18.60
2023-04-10T06:18:56.289Z,16.40
2023-04-10T06:19:55.997Z,15.20
2023-04-10T06:21:03.009Z,16.90
2023-04-10T06:21:56.011Z,16.60
2023-04-10T06:22:55.963Z,16.30
2023-04-10T06:23:56.332Z,17.80
2023-04-10T06:24:55.960Z,16.40
2023-04-10T06:25:55.985Z,16.60
2023-04-10T06:26:55.962Z,17.60
2023-04-10T06:27:55.963Z,16.40
2023-04-10T06:28:56.150Z,16.80
2023-04-10T06:29:55.961Z,17.40
2023-04-10T06:30:55.997Z,16.30
2023-04-10T06:31:55.997Z,15.30
2023-04-10T06:32:55.991Z,15.50
2023-04-10T06:33:55.930Z,15.20
2023-04-10T06:34:55.896Z,15.30
2023-04-10T06:35:55.951Z,16.70
2023-04-10T06:36:56.040Z,15.30
2023-04-10T06:37:55.874Z,14.50
2023-04-10T06:38:56.127Z,14.50
2023-04-10T06:39:55.887Z,14.10
2023-04-10T06:40:55.841Z,14.60
2023-04-10T06:41:55.891Z,14.40
2023-04-10T06:42:55.854Z,15.20
2023-04-10T06:43:55.844Z,12.90
2023-04-10T06:44:55.844Z,13.80
2023-04-10T06:45:55.834Z,12.50
2023-04-10T06:46:55.858Z,14.30
2023-04-10T06:47:55.865Z,14.40
2023-04-10T06:48:55.963Z,13.20
2023-04-10T06:49:55.827Z,12.00
2023-04-10T06:50:55.765Z,14.00
2023-04-10T06:51:55.798Z,12.90
2023-04-10T06:52:55.810Z,12.80
2023-04-10T06:53:55.776Z,14.60
2023-04-10T06:54:55.759Z,12.20
2023-04-10T06:55:55.771Z,14.00
2023-04-10T06:56:55.754Z,13.00
2023-04-10T06:57:55.758Z,13.20
2023-04-10T06:58:55.953Z,14.50
2023-04-10T06:59:55.753Z,12.60
2023-04-10T07:00:55.752Z,12.50
2023-04-10T07:01:55.756Z,12.00
2023-04-10T07:02:55.720Z,13.40
2023-04-10T07:03:55.708Z,13.90
2023-04-10T07:04:55.686Z,12.20
2023-04-10T07:05:55.667Z,12.10
2023-04-10T07:06:55.661Z,13.10
2023-04-10T07:07:55.678Z,15.40
2023-04-10T07:08:55.902Z,12.20
2023-04-10T07:09:55.661Z,14.20
2023-04-10T07:10:58.312Z,12.70
2023-04-10T07:11:55.662Z,12.20
2023-04-10T07:12:55.628Z,11.90
2023-04-10T07:13:55.622Z,13.10
2023-04-10T07:14:55.606Z,11.50
2023-04-10T07:15:55.665Z,11.80
2023-04-10T07:16:55.571Z,11.90
2023-04-10T07:17:55.622Z,13.10
2023-04-10T07:18:55.830Z,13.00
2023-04-10T07:19:55.586Z,12.20
2023-04-10T07:20:55.525Z,12.50
2023-04-10T07:21:55.563Z,12.40
2023-04-10T07:22:55.520Z,11.40
2023-04-10T07:23:55.537Z,12.40
2023-04-10T07:24:55.502Z,12.30
2023-04-10T07:25:55.529Z,14.30
2023-04-10T07:26:55.516Z,16.60
2023-04-10T07:27:55.495Z,17.40
2023-04-10T07:28:55.701Z,13.90
2023-04-10T07:29:55.480Z,11.60
2023-04-10T07:30:55.475Z,12.40
2023-04-10T07:31:55.585Z,12.20
2023-04-10T07:32:55.549Z,15.10
2023-04-10T07:33:55.457Z,16.90
2023-04-10T07:34:55.444Z,16.70
2023-04-10T07:35:55.509Z,13.20
2023-04-10T07:36:55.418Z,12.20
2023-04-10T07:37:55.440Z,11.60
2023-04-10T07:38:55.600Z,11.10
2023-04-10T07:39:55.427Z,12.20
2023-04-10T07:40:55.387Z,12.70
2023-04-10T07:41:55.386Z,13.00
2023-04-10T07:42:55.410Z,14.00
2023-04-10T07:43:55.408Z,12.30
2023-04-10T07:44:55.348Z,13.80
2023-04-10T07:45:55.362Z,15.30
2023-04-10T07:46:55.331Z,15.40
2023-04-10T07:47:55.358Z,16.00
2023-04-10T07:48:55.840Z,16.00
2023-04-10T07:49:55.312Z,15.50
2023-04-10T07:50:55.302Z,16.10
2023-04-10T07:51:55.326Z,14.60
2023-04-10T07:52:55.300Z,14.90
2023-04-10T07:53:55.288Z,15.50
2023-04-10T07:54:55.276Z,16.20
2023-04-10T07:55:55.299Z,15.40
2023-04-10T07:56:55.249Z,14.50
2023-04-10T07:57:55.273Z,16.30
2023-04-10T07:58:55.484Z,14.30
2023-04-10T07:59:55.249Z,15.60
2023-04-10T08:00:55.256Z,14.60
2023-04-10T08:01:55.274Z,14.90
2023-04-10T08:02:55.384Z,14.10
2023-04-10T08:03:55.317Z,14.10
2023-04-10T08:04:55.553Z,14.90
2023-04-10T08:05:55.234Z,14.50
2023-04-10T08:06:55.199Z,13.70
2023-04-10T08:07:55.187Z,14.00
2023-04-10T08:08:55.346Z,15.70
2023-04-10T08:09:55.171Z,14.30
2023-04-10T08:10:55.164Z,15.00
2023-04-10T08:11:55.175Z,15.20
2023-04-10T08:12:55.133Z,15.80
2023-04-10T08:13:55.246Z,15.80
2023-04-10T08:14:55.123Z,14.00
2023-04-10T08:15:55.162Z,14.80
2023-04-10T08:16:55.146Z,15.00
2023-04-10T08:17:55.197Z,15.40
2023-04-10T08:18:55.250Z,14.90
2023-04-10T08:19:55.110Z,14.60
2023-04-10T08:20:55.120Z,13.60
2023-04-10T08:21:55.077Z,14.30
2023-04-10T08:22:56.254Z,15.30
2023-04-10T08:23:55.082Z,15.20
2023-04-10T08:24:55.061Z,15.60
2023-04-10T08:25:55.074Z,15.60
2023-04-10T08:26:55.087Z,14.50
2023-04-10T08:27:55.051Z,16.30
2023-04-10T08:28:55.151Z,14.70
2023-04-10T08:29:55.018Z,14.70
2023-04-10T08:30:55.103Z,15.00
2023-04-10T08:31:55.025Z,16.40
2023-04-10T08:32:55.006Z,15.10
2023-04-10T08:33:55.355Z,14.30
2023-04-10T08:34:54.990Z,16.00
2023-04-10T08:35:55.009Z,15.90
2023-04-10T08:36:55.019Z,15.10
2023-04-10T08:38:11.678Z,15.80
2023-04-10T08:38:55.976Z,14.70
2023-04-10T08:39:54.966Z,15.70
2023-04-10T08:40:54.926Z,15.20
2023-04-10T08:41:54.949Z,17.00
2023-04-10T08:42:54.915Z,14.70
2023-04-10T08:43:55.227Z,15.00
2023-04-10T08:44:54.910Z,16.40
2023-04-10T08:45:54.962Z,16.00
2023-04-10T08:46:54.897Z,14.60
2023-04-10T08:47:54.915Z,14.70
2023-04-10T08:48:54.853Z,15.10
2023-04-10T08:49:54.874Z,14.30
2023-04-10T08:50:54.850Z,15.80
2023-04-10T08:51:54.898Z,15.80
2023-04-10T08:52:54.841Z,15.50
2023-04-10T08:53:55.000Z,14.00
2023-04-10T08:54:54.824Z,15.30
2023-04-10T08:55:54.833Z,14.00
2023-04-10T08:56:54.826Z,14.50
2023-04-10T08:58:01.075Z,14.60
2023-04-10T08:58:55.796Z,13.10
2023-04-10T08:59:54.815Z,14.30
2023-04-10T09:00:54.819Z,13.70
2023-04-10T09:01:54.892Z,15.30
2023-04-10T09:02:54.947Z,14.90
2023-04-10T09:03:55.127Z,13.90
2023-04-10T09:04:54.978Z,13.10
2023-04-10T09:05:54.765Z,14.40
2023-04-10T09:06:54.753Z,14.00
2023-04-10T09:07:54.805Z,13.80
2023-04-10T09:08:54.757Z,13.80
2023-04-10T09:09:54.763Z,13.30
2023-04-10T09:10:56.328Z,14.50
2023-04-10T09:11:54.729Z,13.50
2023-04-10T09:12:54.749Z,14.70
2023-04-10T09:13:54.890Z,14.40
2023-04-10T09:14:54.703Z,14.10
2023-04-10T09:15:54.812Z,14.20
2023-04-10T09:16:54.685Z,13.00
2023-04-10T09:17:54.724Z,14.00
2023-04-10T09:18:54.666Z,13.90
2023-04-10T09:19:54.702Z,13.70
2023-04-10T09:20:54.635Z,13.20
2023-04-10T09:21:54.690Z,12.40
2023-04-10T09:22:54.641Z,14.10
2023-04-10T09:23:54.942Z,13.70
2023-04-10T09:24:54.648Z,13.60
2023-04-10T09:25:54.621Z,13.00
2023-04-10T09:26:54.584Z,13.10
2023-04-10T09:27:54.603Z,14.40
2023-04-10T09:28:54.571Z,13.20
2023-04-10T09:29:54.584Z,12.30
2023-04-10T09:30:54.619Z,12.80
2023-04-10T09:31:54.602Z,12.90
2023-04-10T09:32:54.621Z,12.00
2023-04-10T09:33:54.695Z,11.10
2023-04-10T09:34:54.543Z,11.50
2023-04-10T09:35:54.536Z,11.90
2023-04-10T09:36:54.516Z,12.90
2023-04-10T09:37:54.577Z,12.00
2023-04-10T09:38:54.506Z,12.50
2023-04-10T09:39:54.529Z,11.20
2023-04-10T09:40:54.938Z,13.00
2023-04-10T09:41:54.510Z,11.90
2023-04-10T09:42:54.471Z,10.90
2023-04-10T09:43:54.768Z,10.70
2023-04-10T09:44:54.466Z,10.80
2023-04-10T09:45:54.500Z,11.00
2023-04-10T09:46:54.722Z,10.60
2023-04-10T09:47:54.530Z,9.40
2023-04-10T09:48:54.433Z,9.90
2023-04-10T09:49:54.465Z,9.70
2023-04-10T09:50:54.417Z,9.20
2023-04-10T09:51:54.492Z,10.00
2023-04-10T09:52:54.437Z,9.00
2023-04-10T09:53:54.531Z,8.80
2023-04-10T09:54:54.441Z,8.90
2023-04-10T09:55:54.400Z,9.60
2023-04-10T09:56:54.379Z,9.60
2023-04-10T09:57:54.401Z,9.40
2023-04-10T09:58:54.564Z,9.00
2023-04-10T09:59:54.425Z,9.10
2023-04-10T10:00:54.359Z,8.70
2023-04-10T10:01:54.425Z,8.70
2023-04-10T10:02:54.510Z,8.70
2023-04-10T10:03:54.434Z,8.70
2023-04-10T10:04:54.370Z,9.40
2023-04-10T10:05:54.337Z,10.10
2023-04-10T10:06:54.322Z,9.20
2023-04-10T10:07:54.305Z,8.80
2023-04-10T10:08:54.568Z,9.50
2023-04-10T10:09:54.339Z,8.70
2023-04-10T10:10:54.310Z,8.40
2023-04-10T10:11:54.295Z,8.70
2023-04-10T10:12:54.295Z,8.00
2023-04-10T10:13:54.320Z,9.00
2023-04-10T10:14:54.255Z,8.00
2023-04-10T10:15:54.289Z,8.20
2023-04-10T10:16:54.267Z,8.20
2023-04-10T10:17:54.279Z,9.00
2023-04-10T10:18:54.483Z,9.20
2023-04-10T10:19:54.217Z,8.90
2023-04-10T10:20:54.211Z,8.20
2023-04-10T10:21:54.231Z,8.00
2023-04-10T10:22:54.198Z,10.20
2023-04-10T10:23:54.250Z,10.00
2023-04-10T10:24:54.172Z,7.60
2023-04-10T10:25:54.178Z,7.50
2023-04-10T10:26:54.155Z,7.70
2023-04-10T10:27:54.186Z,7.30
2023-04-10T10:28:54.490Z,7.00
2023-04-10T10:29:54.145Z,8.00
2023-04-10T10:30:54.134Z,7.40
2023-04-10T10:31:54.284Z,6.90
2023-04-10T10:32:54.164Z,7.10
2023-04-10T10:33:54.143Z,7.70
2023-04-10T10:34:54.101Z,7.20
2023-04-10T10:35:54.105Z,7.70
2023-04-10T10:36:54.120Z,7.50
2023-04-10T10:37:54.109Z,7.10
2023-04-10T10:38:54.278Z,7.50
2023-04-10T10:39:54.087Z,7.70
2023-04-10T10:40:54.057Z,7.10
2023-04-10T10:41:54.069Z,6.80
2023-04-10T10:42:54.036Z,6.80
2023-04-10T10:43:54.063Z,6.70
2023-04-10T10:44:54.053Z,6.60
2023-04-10T10:45:54.063Z,6.30
2023-04-10T10:46:54.021Z,6.90
2023-04-10T10:47:54.036Z,6.30
2023-04-10T10:48:54.188Z,6.20
2023-04-10T10:49:54.054Z,6.80
2023-04-10T10:50:54.047Z,7.60
2023-04-10T10:51:53.994Z,6.70
2023-04-10T10:52:53.980Z,7.90
2023-04-10T10:53:53.979Z,5.90
2023-04-10T10:54:59.425Z,6.30
2023-04-10T10:55:54.989Z,5.80
2023-04-10T10:56:53.928Z,6.60
2023-04-10T10:57:53.959Z,7.60
2023-04-10T10:58:54.261Z,7.40
2023-04-10T10:59:53.922Z,6.60
2023-04-10T11:00:53.913Z,6.40
2023-04-10T11:01:54.103Z,6.60
2023-04-10T11:02:54.014Z,6.60
2023-04-10T11:03:54.083Z,6.40
2023-04-10T11:04:53.892Z,8.60
2023-04-10T11:05:53.903Z,8.80
2023-04-10T11:06:53.896Z,9.60
2023-04-10T11:07:53.895Z,9.90
2023-04-10T11:08:54.076Z,11.40
2023-04-10T11:09:53.887Z,13.80
2023-04-10T11:10:53.835Z,8.90
2023-04-10T11:11:53.848Z,6.60
2023-04-10T11:12:53.844Z,6.20
2023-04-10T11:13:53.862Z,6.10
2023-04-10T11:14:53.798Z,6.10
2023-04-10T11:15:53.826Z,7.70
2023-04-10T11:16:53.848Z,6.60
2023-04-10T11:17:53.835Z,6.50
2023-04-10T11:19:06.261Z,6.80
2023-04-10T11:19:53.786Z,6.40
2023-04-10T11:20:53.769Z,6.60
2023-04-10T11:21:53.788Z,7.10
2023-04-10T11:22:53.741Z,7.40
2023-04-10T11:23:53.779Z,7.30
2023-04-10T11:24:53.736Z,6.70
2023-04-10T11:25:53.799Z,6.20
2023-04-10T11:26:53.716Z,6.20
2023-04-10T11:27:53.730Z,5.50
2023-04-10T11:28:53.899Z,6.50
2023-04-10T11:29:53.702Z,6.80
2023-04-10T11:30:53.719Z,7.40
2023-04-10T11:31:53.746Z,7.00
2023-04-10T11:32:53.712Z,6.70
2023-04-10T11:33:53.686Z,6.00
2023-04-10T11:34:53.649Z,6.10
2023-04-10T11:35:53.765Z,9.60
2023-04-10T11:36:53.658Z,8.30
2023-04-10T11:37:53.683Z,7.70
2023-04-10T11:38:53.946Z,8.20
2023-04-10T11:39:53.658Z,8.80
2023-04-10T11:40:53.610Z,8.70
2023-04-10T11:41:53.759Z,9.00
2023-04-10T11:42:53.601Z,8.80
2023-04-10T11:43:53.612Z,10.10
2023-04-10T11:44:53.620Z,9.70
2023-04-10T11:45:53.626Z,6.60
2023-04-10T11:46:53.576Z,7.40
2023-04-10T11:47:53.606Z,6.40
2023-04-10T11:48:53.673Z,6.70
2023-04-10T11:49:53.570Z,7.50
2023-04-10T11:50:53.550Z,8.20
2023-04-10T11:51:53.556Z,7.50
2023-04-10T11:52:55.267Z,6.50
2023-04-10T11:53:53.560Z,7.30
2023-04-10T11:54:53.543Z,6.40
2023-04-10T11:55:53.529Z,6.10
2023-04-10T11:56:53.496Z,5.90
2023-04-10T11:57:53.501Z,6.00
2023-04-10T11:58:53.777Z,6.80
2023-04-10T11:59:53.509Z,6.20
2023-04-10T12:00:53.487Z,6.90
2023-04-10T12:01:53.523Z,6.70
2023-04-10T12:02:53.813Z,6.00
2023-04-10T12:03:53.590Z,6.50
2023-04-10T12:04:53.491Z,6.50
2023-04-10T12:05:53.463Z,6.90
2023-04-10T12:06:53.454Z,6.80
2023-04-10T12:07:53.439Z,6.00
2023-04-10T12:08:53.929Z,6.40
2023-04-10T12:09:53.448Z,6.60
2023-04-10T12:10:53.431Z,6.90
2023-04-10T12:11:53.462Z,6.30
2023-04-10T12:12:53.390Z,5.70
2023-04-10T12:13:53.383Z,6.60
2023-04-10T12:14:53.369Z,6.30
2023-04-10T12:15:53.556Z,6.40
2023-04-10T12:16:53.352Z,5.70
2023-04-10T12:17:53.416Z,6.40
2023-04-10T12:18:53.584Z,6.40
2023-04-10T12:19:53.368Z,6.40
2023-04-10T12:22:00.182Z,6.20
2023-04-10T12:23:00.198Z,5.50
2023-04-10T12:24:00.163Z,6.00
2023-04-10T12:25:00.170Z,7.00
2023-04-10T12:26:00.192Z,6.70
2023-04-10T12:27:01.137Z,6.30
2023-04-10T12:28:00.163Z,5.80
2023-04-10T12:29:00.159Z,6.10
2023-04-10T12:30:00.180Z,5.60
2023-04-10T12:31:00.165Z,5.60
2023-04-10T12:32:01.061Z,5.60
2023-04-10T12:33:00.181Z,6.30
2023-04-10T12:34:00.153Z,5.50
2023-04-10T12:35:00.163Z,5.60
2023-04-10T12:36:00.150Z,5.40
2023-04-10T12:37:00.101Z,5.90
2023-04-10T12:38:00.104Z,5.90
2023-04-10T12:39:00.134Z,7.40
2023-04-10T12:40:00.070Z,7.50
2023-04-10T12:41:00.059Z,6.60
2023-04-10T12:42:00.104Z,5.90
2023-04-10T12:43:00.244Z,5.70
2023-04-10T12:44:00.042Z,6.00
2023-04-10T12:45:00.043Z,6.40
2023-04-10T12:46:00.066Z,5.70
2023-04-10T12:47:00.044Z,5.80
2023-04-10T12:48:00.041Z,6.50
2023-04-10T12:49:00.014Z,5.50
2023-04-10T12:49:59.987Z,5.90
2023-04-10T12:50:59.995Z,6.00
2023-04-10T12:52:00.008Z,5.70
2023-04-10T12:52:59.991Z,6.20
2023-04-10T12:53:59.965Z,6.50
2023-04-10T12:54:59.979Z,6.10
2023-04-10T12:55:59.932Z,6.90
2023-04-10T12:56:59.965Z,6.30
2023-04-10T12:57:59.922Z,7.30
2023-04-10T12:58:59.949Z,5.20
2023-04-10T12:59:59.910Z,6.80